createdAt,value
2023-04-11T00:00:12.924Z,11.58
2023-04-11T00:02:40.513Z,11.49
2023-04-11T00:05:08.268Z,11.45
2023-04-11T00:07:35.683Z,11.44
2023-04-11T00:10:03.082Z,11.41
2023-04-11T00:12:31.679Z,11.39
2023-04-11T00:14:58.933Z,11.32
2023-04-11T00:17:31.249Z,11.25
2023-04-11T00:20:01.670Z,11.20
2023-04-11T00:22:30.546Z,11.27
2023-04-11T00:24:57.806Z,11.33
2023-04-11T00:27:25.337Z,11.27
2023-04-11T00:29:56.115Z,11.19
2023-04-11T00:32:23.448Z,11.32
2023-04-11T00:34:50.720Z,11.31
2023-04-11T00:37:21.288Z,11.26
2023-04-11T00:39:50.421Z,11.38
2023-04-11T00:42:18.230Z,11.42
2023-04-11T00:44:45.659Z,11.48
2023-04-11T00:47:14.725Z,11.57
2023-04-11T00:49:42.190Z,11.58
2023-04-11T00:52:09.709Z,11.48
2023-04-11T00:54:36.966Z,11.55
2023-04-11T00:57:05.684Z,11.56
2023-04-11T00:59:33.565Z,11.61
2023-04-11T01:02:02.456Z,11.55
2023-04-11T01:04:31.133Z,11.53
2023-04-11T01:07:03.946Z,11.54
2023-04-11T01:09:33.105Z,11.58
2023-04-11T01:12:01.255Z,11.61
2023-04-11T01:14:29.493Z,11.67
2023-04-11T01:16:57.375Z,11.71
2023-04-11T01:19:25.740Z,11.63
2023-04-11T01:21:54.870Z,11.69
2023-04-11T01:24:23.546Z,11.66
2023-04-11T01:26:51.919Z,11.64
2023-04-11T01:29:19.245Z,11.63
2023-04-11T01:31:46.701Z,11.62
2023-04-11T01:34:15.510Z,11.51
2023-04-11T01:36:43.497Z,11.57
2023-04-11T01:39:11.030Z,11.61
2023-04-11T01:41:40.665Z,11.48
2023-04-11T01:44:07.935Z,11.46
2023-04-11T01:46:35.317Z,11.63
2023-04-11T01:49:02.611Z,11.53
2023-04-11T01:51:29.885Z,11.48
2023-04-11T01:53:57.152Z,11.54
2023-04-11T01:56:24.481Z,11.55
2023-04-11T01:58:53.261Z,11.49
2023-04-11T02:01:21.557Z,11.49
2023-04-11T02:03:49.033Z,11.52
2023-04-11T02:06:17.049Z,11.51
2023-04-11T02:08:44.469Z,11.48
2023-04-11T02:11:11.894Z,11.48
2023-04-11T02:13:39.162Z,11.49
2023-04-11T02:16:09.230Z,11.49
2023-04-11T02:18:37.191Z,11.53
2023-04-11T02:21:04.689Z,11.52
2023-04-11T02:23:32.031Z,11.50
2023-04-11T02:25:59.309Z,11.53
2023-04-11T02:28:26.553Z,11.55
2023-04-11T02:30:53.946Z,11.57
2023-04-11T02:33:22.816Z,11.69
2023-04-11T02:35:50.211Z,11.75
2023-04-11T02:38:17.492Z,11.67
2023-04-11T02:40:44.756Z,11.75
2023-04-11T02:43:12.039Z,11.74
2023-04-11T02:45:39.493Z,11.75
2023-04-11T02:48:07.000Z,11.74
2023-04-11T02:50:36.051Z,11.64
2023-04-11T02:53:03.350Z,11.67
2023-04-11T02:55:30.691Z,11.69
2023-04-11T02:57:58.445Z,11.74
2023-04-11T03:00:26.133Z,11.81
2023-04-11T03:02:56.407Z,11.76
2023-04-11T03:05:23.824Z,11.83
2023-04-11T03:07:52.399Z,11.81
2023-04-11T03:10:19.673Z,11.73
2023-04-11T03:12:46.966Z,11.78
2023-04-11T03:15:15.384Z,11.71
2023-04-11T03:17:42.828Z,11.68
2023-04-11T03:20:11.650Z,11.66
2023-04-11T03:22:39.183Z,11.71
2023-04-11T03:25:08.737Z,11.67
2023-04-11T03:27:36.041Z,11.66
2023-04-11T03:30:03.725Z,11.68
2023-04-11T03:32:31.341Z,11.69
2023-04-11T03:35:01.275Z,11.73
2023-04-11T03:37:28.533Z,11.68
2023-04-11T03:39:55.857Z,11.71
2023-04-11T03:42:24.580Z,11.66
2023-04-11T03:44:51.852Z,11.63
2023-04-11T03:47:19.151Z,11.63
2023-04-11T03:49:46.675Z,11.64
2023-04-11T03:52:14.974Z,11.65
2023-04-11T03:54:42.246Z,11.55
2023-04-11T03:57:09.732Z,11.54
2023-04-11T03:59:38.348Z,11.45
2023-04-11T04:02:05.941Z,11.54
2023-04-11T04:04:34.155Z,11.55
2023-04-11T04:07:01.689Z,11.53
2023-04-11T04:09:29.107Z,11.42
2023-04-11T04:11:57.378Z,11.45
2023-04-11T04:14:24.681Z,11.46
2023-04-11T04:16:53.316Z,11.43
2023-04-11T04:19:20.604Z,11.40
2023-04-11T04:21:47.977Z,11.40
2023-04-11T04:24:15.277Z,11.43
2023-04-11T04:26:42.568Z,11.32
2023-04-11T04:29:10.099Z,11.28
2023-04-11T04:31:38.180Z,11.32
2023-04-11T04:34:09.349Z,11.31
2023-04-11T04:36:46.157Z,11.33
2023-04-11T04:39:17.541Z,11.28
2023-04-11T04:41:45.622Z,11.26
2023-04-11T04:44:12.928Z,11.27
2023-04-11T04:46:40.381Z,11.21
2023-04-11T04:49:09.446Z,11.16
2023-04-11T04:51:37.332Z,11.20
2023-04-11T04:54:05.678Z,11.23
2023-04-11T04:56:33.049Z,11.11
2023-04-11T04:59:00.318Z,11.05
2023-04-11T05:01:27.689Z,11.02
2023-04-11T05:04:00.463Z,10.93
2023-04-11T05:06:31.445Z,10.84
2023-04-11T05:08:59.495Z,10.76
2023-04-11T05:11:27.030Z,10.70
2023-04-11T05:13:54.507Z,10.81
2023-04-11T05:16:22.300Z,10.68
2023-04-11T05:18:49.608Z,10.61
2023-04-11T05:21:16.875Z,10.69
2023-04-11T05:23:45.493Z,10.57
2023-04-11T05:26:14.416Z,10.55
2023-04-11T05:28:42.414Z,10.55
2023-04-11T05:31:09.871Z,10.59
2023-04-11T05:33:38.305Z,10.57
2023-04-11T05:36:06.109Z,10.56
2023-04-11T05:38:33.833Z,10.54
2023-04-11T05:41:02.392Z,10.68
2023-04-11T05:43:29.671Z,10.54
2023-04-11T05:45:57.865Z,10.61
2023-04-11T05:48:25.289Z,10.48
2023-04-11T05:50:52.593Z,10.50
2023-04-11T05:53:20.209Z,10.52
2023-04-11T05:55:47.493Z,10.55
2023-04-11T05:58:16.103Z,10.65
2023-04-11T06:00:43.450Z,10.62
2023-04-11T06:03:10.835Z,10.64
2023-04-11T06:05:38.948Z,10.64
2023-04-11T06:08:07.580Z,10.52
2023-04-11T06:10:35.916Z,10.61
2023-04-11T06:13:03.205Z,10.35
2023-04-11T06:15:31.917Z,10.46
2023-04-11T06:17:59.262Z,10.51
2023-04-11T06:20:26.676Z,10.58
2023-04-11T06:22:53.934Z,10.59
2023-04-11T06:25:21.719Z,10.58
2023-04-11T06:27:49.093Z,10.52
2023-04-11T06:30:16.355Z,10.48
2023-04-11T06:32:45.058Z,10.53
2023-04-11T06:35:12.379Z,10.46
2023-04-11T06:37:39.644Z,10.49
2023-04-11T06:40:08.013Z,10.45
2023-04-11T06:42:35.279Z,10.33
2023-04-11T06:45:02.698Z,10.26
2023-04-11T06:47:29.997Z,10.29
2023-04-11T06:49:59.283Z,10.44
2023-04-11T06:52:28.162Z,10.51
2023-04-11T06:54:55.794Z,10.59
2023-04-11T06:57:23.069Z,10.40
2023-04-11T06:59:50.442Z,10.31
2023-04-11T07:02:17.828Z,10.11
2023-04-11T07:04:45.254Z,10.17
2023-04-11T07:07:13.977Z,10.16
2023-04-11T07:09:41.241Z,10.38
2023-04-11T07:12:08.598Z,10.54
2023-04-11T07:14:35.918Z,10.57
2023-04-11T07:17:03.373Z,10.53
2023-04-11T07:19:30.645Z,10.36
2023-04-11T07:21:58.381Z,10.27
2023-04-11T07:24:27.222Z,10.48
2023-04-11T07:26:58.389Z,10.19
2023-04-11T07:29:25.911Z,10.10
2023-04-11T07:31:53.652Z,10.34
2023-04-11T07:34:20.944Z,10.48
2023-04-11T07:36:49.944Z,10.48
2023-04-11T07:39:17.216Z,10.63
2023-04-11T07:41:45.873Z,10.65
2023-04-11T07:44:13.136Z,10.82
2023-04-11T07:46:40.404Z,10.70
2023-04-11T07:49:07.702Z,10.59
2023-04-11T07:51:35.194Z,10.48
2023-04-11T07:54:02.472Z,10.61
2023-04-11T07:56:29.769Z,10.83
2023-04-11T07:58:58.434Z,10.74
2023-04-11T08:01:26.719Z,10.63
2023-04-11T08:03:54.928Z,10.85
2023-04-11T08:06:22.547Z,10.78
2023-04-11T08:08:50.324Z,10.51
2023-04-11T08:11:17.705Z,10.56
2023-04-11T08:13:45.055Z,10.49
2023-04-11T08:16:15.467Z,10.70
2023-04-11T08:18:43.014Z,10.79
2023-04-11T08:21:11.377Z,10.85
2023-04-11T08:23:39.597Z,11.09
2023-04-11T08:26:07.722Z,11.10
2023-04-11T08:28:35.857Z,11.38
2023-04-11T08:31:04.134Z,11.13
2023-04-11T08:33:32.998Z,11.22
2023-04-11T08:36:00.363Z,11.01
2023-04-11T08:38:27.707Z,11.31
2023-04-11T08:40:55.643Z,11.07
2023-04-11T08:43:23.184Z,10.99
2023-04-11T08:45:50.675Z,11.11
2023-04-11T08:48:19.467Z,11.26
2023-04-11T08:50:48.410Z,11.35
2023-04-11T08:53:17.888Z,11.29
2023-04-11T08:55:45.785Z,11.42
2023-04-11T08:58:13.141Z,11.38
2023-04-11T09:00:40.880Z,10.89
2023-04-11T09:03:08.863Z,11.05
2023-04-11T09:05:38.185Z,10.97
2023-04-11T09:08:07.964Z,11.20
2023-04-11T09:10:35.821Z,10.91
2023-04-11T09:13:14.691Z,11.07
2023-04-11T09:15:42.118Z,11.07
2023-04-11T09:18:09.788Z,11.20
2023-04-11T09:20:37.174Z,11.36
2023-04-11T09:23:04.462Z,11.27
2023-04-11T09:25:44.270Z,11.16
2023-04-11T09:28:11.690Z,11.18
2023-04-11T09:30:38.950Z,11.02
2023-04-11T09:33:23.747Z,11.28
2023-04-11T09:35:52.018Z,11.59
2023-04-11T09:38:29.893Z,11.56
2023-04-11T09:40:58.918Z,11.73
2023-04-11T09:43:26.513Z,11.57
2023-04-11T09:46:12.058Z,11.41
2023-04-11T09:48:46.037Z,11.83
2023-04-11T09:51:36.529Z,12.00
2023-04-11T09:54:06.146Z,12.24
2023-04-11T09:56:35.415Z,12.31
2023-04-11T09:59:03.997Z,12.43
2023-04-11T10:01:31.533Z,12.56
2023-04-11T10:04:00.981Z,12.79
2023-04-11T10:06:33.813Z,13.06
2023-04-11T10:09:08.197Z,13.11
2023-04-11T10:11:36.997Z,13.29
2023-04-11T10:14:04.662Z,13.52
2023-04-11T10:16:34.269Z,13.73
2023-04-11T10:19:20.438Z,13.36
2023-04-11T10:21:47.933Z,13.44
2023-04-11T10:24:17.490Z,13.53
2023-04-11T10:26:51.491Z,13.72
2023-04-11T10:29:40.705Z,13.55
2023-04-11T10:32:11.661Z,14.05
2023-04-11T10:34:40.002Z,14.32
2023-04-11T10:37:08.662Z,14.77
2023-04-11T10:39:50.824Z,14.80
2023-04-11T10:42:28.774Z,14.79
2023-04-11T10:45:10.956Z,14.23
2023-04-11T10:47:38.280Z,14.34
2023-04-11T10:50:25.887Z,14.37
2023-04-11T10:52:54.610Z,14.49
2023-04-11T10:55:22.213Z,14.20
2023-04-11T10:58:05.663Z,13.95
2023-04-11T11:01:02.036Z,13.60
2023-04-11T11:03:31.660Z,13.38
2023-04-11T11:05:59.910Z,13.02
2023-04-11T11:08:30.626Z,12.14
2023-04-11T11:11:00.637Z,10.91
2023-04-11T11:13:38.558Z,10.30
2023-04-11T11:16:07.220Z,9.85
2023-04-11T11:18:34.631Z,9.90
2023-04-11T11:21:02.119Z,10.24
2023-04-11T11:23:30.756Z,10.57
2023-04-11T11:25:58.907Z,10.85
2023-04-11T11:28:26.280Z,10.98
2023-04-11T11:30:55.531Z,11.20
2023-04-11T11:33:23.843Z,11.71
2023-04-11T11:35:53.130Z,11.89
2023-04-11T11:38:21.251Z,12.22
2023-04-11T11:40:50.291Z,12.00
2023-04-11T11:43:17.627Z,11.58
2023-04-11T11:45:45.518Z,11.20
2023-04-11T11:48:20.559Z,11.02
2023-04-11T11:50:47.869Z,10.66
2023-04-11T11:53:16.391Z,10.26
2023-04-11T11:55:44.048Z,10.21
2023-04-11T11:58:12.686Z,10.19
2023-04-11T12:00:40.917Z,9.64
2023-04-11T12:03:09.949Z,10.03
2023-04-11T12:05:37.739Z,10.05
2023-04-11T12:08:05.983Z,9.92
2023-04-11T12:10:39.776Z,10.04
2023-04-11T12:13:19.814Z,10.46
2023-04-11T12:15:50.659Z,11.07
2023-04-11T12:18:20.580Z,10.86
2023-04-11T12:20:47.935Z,10.93
2023-04-11T12:23:15.215Z,10.88
2023-04-11T12:25:42.538Z,10.95
2023-04-11T12:28:10.040Z,10.76
2023-04-11T12:30:38.875Z,10.97
2023-04-11T12:33:06.608Z,11.17
2023-04-11T12:35:34.008Z,11.34
2023-04-11T12:38:01.741Z,11.39
2023-04-11T12:40:30.094Z,11.69
2023-04-11T12:42:57.784Z,11.98
2023-04-11T12:45:25.342Z,12.03
2023-04-11T12:47:54.294Z,12.20
2023-04-11T12:50:23.294Z,12.20
2023-04-11T12:52:51.424Z,11.99
2023-04-11T12:55:18.984Z,12.18
2023-04-11T12:57:46.259Z,12.59
2023-04-11T13:00:14.343Z,13.07
2023-04-11T13:02:44.515Z,13.50
2023-04-11T13:05:15.293Z,13.75
2023-04-11T13:07:44.566Z,13.76
2023-04-11T13:10:13.456Z,13.86
2023-04-11T13:12:41.650Z,13.88
2023-04-11T13:15:09.966Z,14.07
2023-04-11T13:17:37.448Z,13.78
2023-04-11T13:20:07.703Z,13.43
2023-04-11T13:22:36.392Z,13.36
2023-04-11T13:25:03.823Z,13.58
2023-04-11T13:27:31.081Z,13.62
2023-04-11T13:29:58.397Z,13.52
2023-04-11T13:32:26.017Z,13.60
2023-04-11T13:34:53.329Z,12.92
2023-04-11T13:37:20.595Z,13.23
2023-04-11T13:39:49.242Z,13.16
2023-04-11T13:42:16.529Z,13.05
2023-04-11T13:44:43.915Z,13.22
2023-04-11T13:47:11.168Z,13.38
2023-04-11T13:49:38.477Z,13.51
2023-04-11T13:52:05.878Z,13.47
2023-04-11T13:54:33.184Z,13.63
2023-04-11T13:57:06.734Z,13.53
2023-04-11T13:59:34.086Z,13.50
2023-04-11T14:02:02.572Z,13.50
2023-04-11T14:04:30.025Z,13.04
2023-04-11T14:06:57.717Z,13.20
2023-04-11T14:09:25.069Z,13.03
2023-04-11T14:11:52.352Z,13.00
2023-04-11T14:14:21.092Z,13.18
2023-04-11T14:16:48.457Z,13.41
2023-04-11T14:19:16.292Z,13.51
2023-04-11T14:21:43.590Z,13.66
2023-04-11T14:24:11.010Z,13.14
2023-04-11T14:26:38.321Z,13.14
2023-04-11T14:29:05.816Z,13.16
2023-04-11T14:31:34.509Z,13.52
2023-04-11T14:34:01.839Z,13.53
2023-04-11T14:36:29.167Z,13.31
2023-04-11T14:38:56.649Z,12.91
2023-04-11T14:41:24.159Z,12.87
2023-04-11T14:43:51.741Z,13.20
2023-04-11T14:46:19.033Z,13.05
2023-04-11T14:48:47.659Z,12.99
2023-04-11T14:51:14.970Z,13.09
2023-04-11T14:53:42.841Z,12.94
2023-04-11T14:56:10.489Z,12.73
2023-04-11T14:58:37.878Z,12.45
2023-04-11T15:01:05.465Z,12.15
2023-04-11T15:03:32.993Z,11.81
2023-04-11T15:06:01.820Z,11.74
2023-04-11T15:08:29.104Z,11.61
2023-04-11T15:10:56.420Z,11.54
2023-04-11T15:13:23.758Z,11.42
2023-04-11T15:15:51.386Z,11.22
2023-04-11T15:18:20.082Z,10.99
2023-04-11T15:20:47.389Z,10.96
2023-04-11T15:23:16.318Z,10.64
2023-04-11T15:25:43.861Z,10.66
2023-04-11T15:28:11.164Z,10.59
2023-04-11T15:30:46.117Z,10.77
2023-04-11T15:33:13.821Z,10.81
2023-04-11T15:35:41.546Z,11.16
2023-04-11T15:38:08.873Z,11.27
2023-04-11T15:40:38.060Z,11.23
2023-04-11T15:43:06.314Z,11.33
2023-04-11T15:45:34.540Z,11.52
2023-04-11T15:48:01.957Z,11.75
2023-04-11T15:50:29.636Z,11.73
2023-04-11T15:52:57.907Z,12.04
2023-04-11T15:55:25.264Z,12.07
2023-04-11T15:57:53.841Z,12.22
2023-04-11T16:00:22.649Z,12.16
2023-04-11T16:02:50.552Z,11.97
2023-04-11T16:05:20.782Z,11.98
2023-04-11T16:07:48.669Z,11.97
2023-04-11T16:10:16.244Z,11.98
2023-04-11T16:12:43.548Z,12.01
2023-04-11T16:15:12.326Z,12.00
2023-04-11T16:17:40.349Z,12.20
2023-04-11T16:20:12.107Z,12.25
2023-04-11T16:22:41.685Z,11.46
2023-04-11T16:25:09.298Z,11.55
2023-04-11T16:27:36.923Z,11.64
2023-04-11T16:30:05.730Z,11.54
2023-04-11T16:32:34.403Z,11.80
2023-04-11T16:35:01.778Z,11.89
2023-04-11T16:37:29.068Z,12.26
2023-04-11T16:39:56.569Z,12.38
2023-04-11T16:42:23.885Z,12.27
2023-04-11T16:44:51.268Z,12.52
2023-04-11T16:47:18.839Z,12.67
2023-04-11T16:49:50.662Z,12.29
2023-04-11T16:52:17.924Z,12.14
2023-04-11T16:54:45.392Z,12.21
2023-04-11T16:57:12.863Z,12.12
2023-04-11T16:59:40.134Z,12.06
2023-04-11T17:02:07.675Z,12.15
2023-04-11T17:04:35.331Z,12.52
2023-04-11T17:07:04.017Z,12.58
2023-04-11T17:09:31.531Z,12.58
2023-04-11T17:11:58.998Z,12.80
2023-04-11T17:14:29.274Z,12.54
2023-04-11T17:16:56.524Z,12.02
2023-04-11T17:19:25.550Z,11.79
2023-04-11T17:21:52.955Z,11.80
2023-04-11T17:24:21.543Z,11.66
2023-04-11T17:26:48.835Z,11.76
2023-04-11T17:29:16.659Z,11.71
2023-04-11T17:31:43.932Z,11.80
2023-04-11T17:34:11.311Z,11.46
2023-04-11T17:36:42.698Z,10.94
2023-04-11T17:39:11.145Z,10.92
2023-04-11T17:41:39.803Z,10.98
2023-04-11T17:44:07.123Z,11.22
2023-04-11T17:46:34.427Z,11.16
2023-04-11T17:49:01.752Z,11.04
2023-04-11T17:51:29.426Z,10.86
2023-04-11T17:53:57.003Z,10.68
2023-04-11T17:56:24.519Z,10.83
2023-04-11T17:58:53.587Z,10.80
2023-04-11T18:01:20.937Z,10.74
2023-04-11T18:03:50.329Z,10.39
2023-04-11T18:06:18.042Z,10.13
2023-04-11T18:08:50.333Z,10.30
2023-04-11T18:11:19.171Z,10.17
2023-04-11T18:13:49.248Z,10.06
2023-04-11T18:16:18.986Z,10.16
2023-04-11T18:18:46.606Z,9.91
2023-04-11T18:21:13.863Z,9.54
2023-04-11T18:23:41.126Z,9.45
2023-04-11T18:26:08.393Z,9.22
2023-04-11T18:28:36.210Z,9.40
2023-04-11T18:31:03.513Z,9.31
2023-04-11T18:33:32.723Z,9.28
2023-04-11T18:36:00.238Z,9.30
2023-04-11T18:38:27.577Z,9.35
2023-04-11T18:40:56.448Z,9.34
2023-04-11T18:43:24.708Z,9.75
2023-04-11T18:45:52.293Z,9.88
2023-04-11T18:48:19.686Z,9.98
2023-04-11T18:50:57.566Z,10.04
2023-04-11T18:53:25.814Z,9.95
2023-04-11T18:55:53.224Z,10.10
2023-04-11T18:58:24.166Z,10.08
2023-04-11T19:00:52.871Z,9.81
2023-04-11T19:03:20.979Z,9.49
2023-04-11T19:05:50.541Z,9.19
2023-04-11T19:08:17.891Z,9.07
2023-04-11T19:13:36.454Z,8.93
2023-04-11T19:16:03.767Z,8.95
2023-04-11T19:18:31.273Z,8.89
2023-04-11T19:20:59.850Z,8.99
2023-04-11T19:23:30.598Z,8.91
2023-04-11T19:26:00.488Z,8.75
2023-04-11T19:28:28.087Z,8.93
2023-04-11T19:30:55.410Z,8.93
2023-04-11T19:33:23.911Z,9.09
2023-04-11T19:35:51.192Z,8.87
2023-04-11T19:38:19.782Z,8.82
2023-04-11T19:40:47.136Z,8.75
2023-04-11T19:43:14.457Z,8.62
2023-04-11T19:45:42.881Z,8.63
2023-04-11T19:48:10.664Z,8.62
2023-04-11T19:50:37.965Z,8.41
2023-04-11T19:53:05.235Z,8.41
2023-04-11T19:55:34.102Z,8.65
2023-04-11T19:58:01.608Z,8.52
2023-04-11T20:00:31.951Z,8.63
2023-04-11T20:02:59.669Z,8.59
2023-04-11T20:05:28.051Z,8.52
2023-04-11T20:07:55.314Z,8.19
2023-04-11T20:10:22.723Z,8.03
2023-04-11T20:12:52.866Z,7.79
2023-04-11T20:15:20.122Z,7.52
2023-04-11T20:17:50.615Z,7.62
2023-04-11T20:20:19.521Z,7.98
2023-04-11T20:22:47.987Z,7.99
2023-04-11T20:25:15.579Z,7.53
2023-04-11T20:27:43.681Z,7.47
2023-04-11T20:30:16.591Z,7.35
2023-04-11T20:32:44.360Z,7.56
2023-04-11T20:35:12.786Z,7.48
2023-04-11T20:37:41.212Z,7.61
2023-04-11T20:40:10.060Z,7.57
2023-04-11T20:42:40.004Z,7.40
2023-04-11T20:45:10.056Z,7.39
2023-04-11T20:47:38.997Z,7.08
2023-04-11T20:50:08.882Z,6.98
2023-04-11T20:52:36.860Z,7.12
2023-04-11T20:55:04.294Z,7.07
2023-04-11T20:57:31.643Z,7.09
2023-04-11T20:59:58.986Z,7.01
2023-04-11T21:02:27.652Z,7.04
2023-04-11T21:04:56.422Z,7.24
2023-04-11T21:07:23.730Z,7.03
2023-04-11T21:09:51.678Z,6.91
2023-04-11T21:12:19.000Z,6.77
2023-04-11T21:14:46.312Z,6.79
2023-04-11T21:17:13.638Z,6.57
2023-04-11T21:19:40.892Z,6.57
2023-04-11T21:22:09.698Z,6.58
2023-04-11T21:24:37.024Z,6.24
2023-04-11T21:27:04.308Z,6.56
2023-04-11T21:29:31.569Z,6.66
2023-04-11T21:31:58.950Z,6.43
2023-04-11T21:34:26.209Z,6.16
2023-04-11T21:36:53.495Z,6.26
2023-04-11T21:39:22.221Z,5.82
2023-04-11T21:41:49.532Z,6.02
2023-04-11T21:44:16.948Z,6.04
2023-04-11T21:46:44.756Z,5.82
2023-04-11T21:49:12.060Z,5.75
2023-04-11T21:51:39.335Z,5.90
2023-04-11T21:54:07.190Z,5.96
2023-04-11T21:56:35.806Z,5.95
2023-04-11T21:59:03.059Z,5.96
2023-04-11T22:01:30.880Z,5.74
2023-04-11T22:03:59.010Z,5.96
2023-04-11T22:06:30.154Z,6.14
2023-04-11T22:09:01.363Z,6.07
2023-04-11T22:11:29.562Z,6.14
2023-04-11T22:13:58.644Z,5.88
2023-04-11T22:16:30.917Z,5.41
2023-04-11T22:18:59.506Z,5.60
2023-04-11T22:21:27.182Z,5.81
2023-04-11T22:23:56.380Z,5.40
2023-04-11T22:26:26.497Z,5.61
2023-04-11T22:28:55.028Z,5.35
2023-04-11T22:31:30.059Z,5.52
2023-04-11T22:33:57.953Z,5.26
2023-04-11T22:36:25.445Z,5.37
2023-04-11T22:38:52.866Z,5.44
2023-04-11T22:41:20.139Z,5.36
2023-04-11T22:43:47.394Z,5.31
2023-04-11T22:46:14.742Z,5.20
2023-04-11T22:48:43.648Z,5.03
2023-04-11T22:51:11.287Z,4.97
2023-04-11T22:53:41.976Z,5.12
2023-04-11T22:56:09.479Z,5.00
2023-04-11T22:58:37.752Z,5.07
2023-04-11T23:01:05.719Z,5.00
2023-04-11T23:03:33.062Z,4.94
2023-04-11T23:06:01.647Z,5.05
2023-04-11T23:08:29.918Z,4.93
2023-04-11T23:10:57.296Z,4.81
2023-04-11T23:13:24.588Z,4.88
2023-04-11T23:15:52.315Z,4.81
2023-04-11T23:18:19.690Z,4.83
2023-04-11T23:20:48.743Z,4.79
2023-04-11T23:23:17.554Z,4.55
2023-04-11T23:25:45.388Z,4.65
2023-04-11T23:28:12.847Z,4.55
2023-04-11T23:30:40.344Z,4.46
2023-04-11T23:33:09.084Z,4.66
2023-04-11T23:35:36.989Z,4.61
2023-04-11T23:38:04.321Z,4.65
2023-04-11T23:40:33.465Z,4.65
2023-04-11T23:43:00.865Z,4.70
2023-04-11T23:45:28.184Z,4.89
2023-04-11T23:47:56.072Z,4.73
2023-04-11T23:50:23.370Z,4.62
2023-04-11T23:52:50.634Z,4.50
2023-04-11T23:55:17.955Z,4.36
2023-04-11T23:57:46.540Z,4.45
